createdAt,value
2018-05-31T00:02:12.041Z,9.80
2018-05-31T00:04:49.964Z,10.37
2018-05-31T00:07:26.295Z,10.70
2018-05-31T00:10:03.378Z,9.60
2018-05-31T00:12:41.481Z,10.73
2018-05-31T00:15:17.822Z,10.37
2018-05-31T00:17:55.101Z,10.40
2018-05-31T00:20:31.825Z,9.83
2018-05-31T00:23:08.789Z,10.17
2018-05-31T00:25:45.178Z,10.50
2018-05-31T00:28:21.821Z,9.50
2018-05-31T00:30:58.812Z,10.17
2018-05-31T00:33:35.820Z,10.13
2018-05-31T00:36:12.209Z,9.70
2018-05-31T00:38:48.698Z,10.53
2018-05-31T00:41:25.812Z,10.80
2018-05-31T00:44:02.488Z,9.90
2018-05-31T00:46:38.853Z,10.47
2018-05-31T00:49:15.329Z,10.57
2018-05-31T00:51:51.888Z,10.83
2018-05-31T00:54:28.548Z,9.97
2018-05-31T00:57:06.912Z,10.63
2018-05-31T00:59:44.353Z,11.07
2018-05-31T01:02:21.200Z,9.17
2018-05-31T01:04:58.950Z,10.03
2018-05-31T01:07:36.217Z,9.80
2018-05-31T01:10:13.001Z,10.33
2018-05-31T01:12:49.559Z,9.87
2018-05-31T01:15:27.765Z,9.40
2018-05-31T01:18:04.362Z,9.60
2018-05-31T01:20:40.456Z,9.97
2018-05-31T01:23:17.216Z,8.53
2018-05-31T01:25:53.513Z,8.93
2018-05-31T01:28:29.910Z,9.53
2018-05-31T01:31:08.352Z,9.60
2018-05-31T01:33:46.106Z,9.47
2018-05-31T01:36:23.853Z,10.17
2018-05-31T01:39:00.896Z,10.27
2018-05-31T01:41:37.565Z,10.30
2018-05-31T01:44:14.308Z,9.93
2018-05-31T01:46:51.957Z,9.50
2018-05-31T01:49:29.914Z,9.27
2018-05-31T01:52:07.045Z,9.40
2018-05-31T01:54:43.988Z,10.10
2018-05-31T01:57:20.669Z,9.40
2018-05-31T01:59:58.421Z,9.97
2018-05-31T02:02:37.512Z,10.23
2018-05-31T02:05:15.294Z,9.93
2018-05-31T02:07:51.990Z,10.20
2018-05-31T02:10:28.920Z,11.00
2018-05-31T02:13:05.331Z,10.00
2018-05-31T02:15:41.876Z,10.80
2018-05-31T02:18:18.326Z,10.50
2018-05-31T02:20:54.725Z,10.17
2018-05-31T02:23:32.785Z,10.17
2018-05-31T02:26:09.577Z,9.30
2018-05-31T02:28:46.952Z,10.97
2018-05-31T02:31:25.180Z,10.93
2018-05-31T02:34:03.648Z,11.57
2018-05-31T02:36:40.598Z,11.00
2018-05-31T02:39:17.585Z,11.97
2018-05-31T02:41:55.330Z,12.40
2018-05-31T02:44:32.785Z,12.00
2018-05-31T02:47:09.298Z,13.53
2018-05-31T02:49:45.834Z,12.97
2018-05-31T02:52:24.011Z,13.50
2018-05-31T02:55:01.610Z,13.70
2018-05-31T02:57:39.494Z,13.17
2018-05-31T03:00:16.485Z,13.13
2018-05-31T03:02:52.650Z,12.63
2018-05-31T03:05:30.564Z,13.07
2018-05-31T03:08:08.657Z,11.37
2018-05-31T03:10:44.722Z,12.63
2018-05-31T03:13:21.676Z,13.47
2018-05-31T03:15:58.672Z,11.73
2018-05-31T03:18:35.346Z,12.73
2018-05-31T03:21:11.876Z,12.57
2018-05-31T03:23:48.708Z,12.33
2018-05-31T03:26:25.670Z,13.27
2018-05-31T03:29:03.892Z,12.27
2018-05-31T03:31:40.788Z,12.27
2018-05-31T03:34:17.049Z,11.97
2018-05-31T03:36:53.903Z,12.33
2018-05-31T03:39:30.195Z,12.43
2018-05-31T03:42:07.581Z,12.70
2018-05-31T03:44:44.538Z,12.57
2018-05-31T03:47:21.466Z,13.00
2018-05-31T03:49:57.880Z,12.13
2018-05-31T03:52:35.157Z,12.60
2018-05-31T03:55:11.600Z,11.60
2018-05-31T03:57:48.676Z,11.97
2018-05-31T04:00:26.072Z,11.40
2018-05-31T04:03:04.181Z,10.97
2018-05-31T04:05:41.147Z,10.80
2018-05-31T04:08:20.218Z,10.27
2018-05-31T04:10:57.388Z,10.30
2018-05-31T04:13:33.461Z,11.13
2018-05-31T04:16:10.745Z,10.67
2018-05-31T04:18:48.505Z,10.03
2018-05-31T04:21:25.522Z,10.13
2018-05-31T04:24:01.986Z,9.67
2018-05-31T04:26:39.841Z,10.07
2018-05-31T04:29:17.173Z,9.10
2018-05-31T04:31:54.132Z,9.57
2018-05-31T04:34:32.354Z,9.27
2018-05-31T04:37:08.739Z,9.40
2018-05-31T04:39:45.389Z,8.70
2018-05-31T04:42:22.412Z,9.50
2018-05-31T04:44:59.354Z,9.57
2018-05-31T04:47:36.034Z,8.93
2018-05-31T04:50:14.285Z,9.43
2018-05-31T04:52:50.618Z,9.80
2018-05-31T04:55:26.330Z,9.33
2018-05-31T04:58:03.384Z,9.13
2018-05-31T05:00:41.548Z,8.93
2018-05-31T05:03:19.161Z,8.13
2018-05-31T05:05:55.828Z,8.40
2018-05-31T05:08:32.913Z,9.37
2018-05-31T05:11:11.037Z,8.83
2018-05-31T05:13:48.456Z,8.33
2018-05-31T05:16:25.783Z,8.47
2018-05-31T05:19:02.239Z,8.73
2018-05-31T05:21:39.876Z,8.40
2018-05-31T05:24:17.165Z,8.27
2018-05-31T05:26:54.108Z,8.60
2018-05-31T05:29:32.396Z,8.40
2018-05-31T05:32:09.922Z,8.73
2018-05-31T05:34:47.518Z,8.70
2018-05-31T05:37:25.650Z,9.17
2018-05-31T05:40:03.001Z,8.17
2018-05-31T05:42:41.220Z,9.33
2018-05-31T05:45:18.240Z,7.87
2018-05-31T05:47:56.954Z,8.83
2018-05-31T05:50:33.392Z,9.03
2018-05-31T05:53:10.486Z,7.77
2018-05-31T05:55:47.407Z,8.90
2018-05-31T05:58:25.548Z,8.90
2018-05-31T06:01:02.228Z,8.40
2018-05-31T06:03:40.128Z,8.77
2018-05-31T06:06:16.320Z,7.77
2018-05-31T06:08:54.085Z,8.43
2018-05-31T06:11:31.391Z,8.37
2018-05-31T06:14:08.309Z,8.30
2018-05-31T06:16:46.235Z,7.97
2018-05-31T06:19:23.742Z,7.50
2018-05-31T06:22:00.852Z,7.60
2018-05-31T06:24:37.189Z,7.73
2018-05-31T06:27:14.773Z,7.27
2018-05-31T06:29:52.066Z,7.60
2018-05-31T06:32:29.121Z,7.40
2018-05-31T06:35:05.433Z,7.73
2018-05-31T06:37:41.478Z,8.10
2018-05-31T06:40:18.293Z,7.07
2018-05-31T06:42:55.444Z,7.57
2018-05-31T06:45:32.329Z,7.67
2018-05-31T06:48:09.097Z,7.87
2018-05-31T06:50:46.820Z,7.30
2018-05-31T06:53:23.492Z,6.93
2018-05-31T06:56:00.334Z,7.13
2018-05-31T06:58:41.221Z,7.43
2018-05-31T07:01:19.201Z,7.40
2018-05-31T07:03:57.729Z,6.73
2018-05-31T07:06:36.682Z,6.77
2018-05-31T07:09:14.141Z,7.57
2018-05-31T07:11:50.805Z,7.20
2018-05-31T07:14:28.713Z,6.60
2018-05-31T07:17:06.715Z,6.33
2018-05-31T07:19:44.368Z,6.73
2018-05-31T07:22:25.161Z,6.90
2018-05-31T07:25:03.455Z,6.73
2018-05-31T07:27:41.060Z,7.07
2018-05-31T07:30:19.125Z,8.00
2018-05-31T07:32:57.109Z,7.37
2018-05-31T07:35:34.751Z,6.77
2018-05-31T07:38:12.804Z,6.63
2018-05-31T07:40:49.262Z,6.50
2018-05-31T07:43:27.421Z,7.17
2018-05-31T07:46:04.165Z,7.13
2018-05-31T07:48:42.054Z,6.87
2018-05-31T07:51:18.356Z,6.90
2018-05-31T07:53:55.209Z,6.47
2018-05-31T07:56:32.972Z,6.97
2018-05-31T07:59:10.243Z,6.73
2018-05-31T08:01:48.145Z,5.93
2018-05-31T08:04:26.074Z,5.70
2018-05-31T08:07:03.380Z,6.63
2018-05-31T08:09:40.341Z,6.67
2018-05-31T08:12:17.888Z,6.80
2018-05-31T08:14:55.548Z,6.20
2018-05-31T08:17:32.192Z,5.60
2018-05-31T08:20:10.416Z,5.80
2018-05-31T08:22:47.125Z,6.10
2018-05-31T08:25:23.751Z,5.83
2018-05-31T08:28:00.713Z,5.73
2018-05-31T08:30:37.938Z,5.80
2018-05-31T08:33:14.682Z,6.50
2018-05-31T08:35:52.230Z,6.40
2018-05-31T08:38:29.263Z,6.07
2018-05-31T08:41:06.248Z,5.30
2018-05-31T08:43:43.832Z,6.00
2018-05-31T08:46:21.136Z,6.17
2018-05-31T08:48:59.616Z,6.20
2018-05-31T08:51:36.930Z,6.40
2018-05-31T08:54:13.729Z,5.77
2018-05-31T08:56:51.299Z,6.20
2018-05-31T08:59:28.482Z,6.20
2018-05-31T09:02:06.054Z,6.27
2018-05-31T09:04:44.160Z,5.80
2018-05-31T09:07:21.286Z,6.30
2018-05-31T09:09:57.622Z,6.03
2018-05-31T09:12:34.607Z,6.40
2018-05-31T09:15:13.713Z,6.47
2018-05-31T09:17:51.680Z,5.80
2018-05-31T09:20:28.725Z,6.20
2018-05-31T09:23:06.519Z,5.97
2018-05-31T09:25:43.208Z,6.80
2018-05-31T09:28:20.168Z,6.50
2018-05-31T09:30:57.053Z,6.50
2018-05-31T09:33:35.665Z,6.53
2018-05-31T09:36:14.164Z,6.40
2018-05-31T09:38:51.841Z,6.07
2018-05-31T09:41:28.460Z,6.50
2018-05-31T09:44:04.141Z,5.90
2018-05-31T09:46:41.485Z,6.53
2018-05-31T09:49:18.362Z,6.07
2018-05-31T09:51:56.057Z,6.17
2018-05-31T09:54:33.053Z,6.13
2018-05-31T09:57:10.580Z,5.27
2018-05-31T09:59:48.532Z,6.27
2018-05-31T10:02:26.444Z,6.43
2018-05-31T10:05:03.428Z,6.63
2018-05-31T10:07:41.009Z,6.27
2018-05-31T10:10:19.529Z,5.80
2018-05-31T10:12:56.513Z,6.67
2018-05-31T10:15:34.085Z,7.53
2018-05-31T10:18:11.076Z,6.00
2018-05-31T10:20:47.441Z,6.43
2018-05-31T10:23:24.050Z,6.50
2018-05-31T10:26:01.918Z,6.87
2018-05-31T10:28:39.297Z,6.43
2018-05-31T10:31:17.217Z,5.83
2018-05-31T10:33:54.800Z,6.47
2018-05-31T10:36:32.552Z,6.27
2018-05-31T10:39:08.254Z,6.17
2018-05-31T10:41:46.329Z,6.03
2018-05-31T10:44:24.411Z,6.13
2018-05-31T10:47:02.704Z,6.57
2018-05-31T10:49:39.320Z,6.30
2018-05-31T10:52:15.743Z,6.57
2018-05-31T10:54:53.206Z,6.63
2018-05-31T10:57:30.997Z,6.43
2018-05-31T11:00:07.090Z,6.57
2018-05-31T11:02:45.353Z,6.90
2018-05-31T11:05:22.728Z,6.60
2018-05-31T11:07:59.270Z,6.40
2018-05-31T11:10:35.544Z,7.07
2018-05-31T11:13:13.726Z,6.60
2018-05-31T11:15:51.739Z,6.37
2018-05-31T11:18:28.620Z,6.87
2018-05-31T11:21:05.322Z,7.47
2018-05-31T11:23:43.465Z,7.30
2018-05-31T11:26:20.229Z,6.77
2018-05-31T11:28:57.120Z,6.20
2018-05-31T11:31:34.203Z,6.63
2018-05-31T11:34:11.185Z,7.10
2018-05-31T11:36:50.317Z,6.70
2018-05-31T11:39:27.916Z,6.30
2018-05-31T11:42:04.541Z,6.60
2018-05-31T11:44:40.771Z,6.43
2018-05-31T11:47:17.912Z,5.87
2018-05-31T11:49:54.775Z,6.43
2018-05-31T11:52:31.279Z,6.37
2018-05-31T11:55:08.190Z,6.00
2018-05-31T11:57:44.791Z,6.37
2018-05-31T12:00:23.376Z,7.10
2018-05-31T12:03:01.943Z,6.20
2018-05-31T12:05:39.503Z,6.50
2018-05-31T12:08:17.510Z,5.93
2018-05-31T12:10:54.929Z,6.40
2018-05-31T12:13:35.980Z,6.30
2018-05-31T12:16:12.854Z,6.53
2018-05-31T12:18:49.025Z,5.90
2018-05-31T12:21:27.865Z,6.20
2018-05-31T12:24:04.322Z,6.13
2018-05-31T12:26:42.921Z,6.13
2018-05-31T12:29:21.771Z,6.43
2018-05-31T12:31:59.161Z,6.40
2018-05-31T12:34:35.525Z,6.07
2018-05-31T12:37:13.475Z,6.73
2018-05-31T12:39:50.751Z,6.30
2018-05-31T12:42:27.717Z,6.50
2018-05-31T12:45:04.689Z,6.43
2018-05-31T12:47:42.969Z,5.37
2018-05-31T12:50:20.992Z,5.77
2018-05-31T12:52:58.699Z,6.63
2018-05-31T12:55:35.723Z,6.27
2018-05-31T12:58:12.655Z,5.93
2018-05-31T13:00:49.647Z,6.30
2018-05-31T13:03:27.162Z,6.00
2018-05-31T13:06:04.591Z,6.33
2018-05-31T13:08:41.406Z,6.20
2018-05-31T13:11:18.328Z,6.37
2018-05-31T13:13:55.142Z,5.97
2018-05-31T13:16:34.385Z,6.17
2018-05-31T13:19:11.660Z,6.60
2018-05-31T13:21:47.946Z,5.50
2018-05-31T13:24:25.668Z,5.93
2018-05-31T13:27:04.089Z,5.47
2018-05-31T13:29:39.880Z,5.87
2018-05-31T13:32:16.154Z,6.27
2018-05-31T13:34:54.592Z,5.87
2018-05-31T13:37:31.263Z,6.90
2018-05-31T13:40:08.118Z,6.87
2018-05-31T13:42:46.522Z,6.17
2018-05-31T13:45:24.301Z,5.63
2018-05-31T13:48:01.648Z,5.63
2018-05-31T13:50:38.381Z,6.20
2018-05-31T13:53:15.415Z,6.37
2018-05-31T13:55:52.545Z,6.30
2018-05-31T13:58:29.644Z,6.53
2018-05-31T14:01:06.895Z,5.73
2018-05-31T14:03:44.828Z,6.67
2018-05-31T14:06:22.125Z,6.80
2018-05-31T14:09:00.162Z,6.57
2018-05-31T14:11:37.142Z,6.03
2018-05-31T14:14:14.291Z,6.67
2018-05-31T14:16:52.284Z,7.30
2018-05-31T14:19:29.924Z,6.07
2018-05-31T14:22:05.812Z,5.97
2018-05-31T14:24:43.137Z,6.63
2018-05-31T14:27:21.373Z,6.10
2018-05-31T14:29:58.933Z,7.03
2018-05-31T14:32:37.017Z,6.47
2018-05-31T14:35:14.863Z,6.47
2018-05-31T14:37:52.333Z,5.93
2018-05-31T14:40:29.299Z,6.30
2018-05-31T14:43:07.555Z,6.37
2018-05-31T14:45:44.986Z,6.77
2018-05-31T14:48:21.545Z,5.97
2018-05-31T14:50:59.297Z,6.30
2018-05-31T14:53:36.031Z,6.60
2018-05-31T14:56:11.959Z,6.47
2018-05-31T14:58:48.158Z,6.57
2018-05-31T15:01:25.180Z,6.00
2018-05-31T15:04:01.636Z,6.23
2018-05-31T15:06:38.178Z,6.23
2018-05-31T15:09:16.613Z,6.50
2018-05-31T15:11:54.594Z,6.60
2018-05-31T15:14:32.110Z,6.50
2018-05-31T15:17:09.797Z,6.10
2018-05-31T15:19:46.362Z,6.03
2018-05-31T15:22:22.554Z,6.20
2018-05-31T15:25:00.201Z,6.63
2018-05-31T15:27:37.435Z,6.27
2018-05-31T15:30:14.382Z,6.57
2018-05-31T15:32:51.981Z,6.43
2018-05-31T15:35:28.709Z,6.17
2018-05-31T15:38:07.581Z,7.30
2018-05-31T15:40:45.061Z,6.73
2018-05-31T15:43:21.740Z,6.17
2018-05-31T15:45:58.709Z,6.80
2018-05-31T15:48:36.056Z,6.30
2018-05-31T15:51:12.673Z,6.30
2018-05-31T15:53:48.749Z,6.33
2018-05-31T15:56:26.019Z,6.73
2018-05-31T15:59:03.276Z,6.77
2018-05-31T16:01:41.285Z,5.97
2018-05-31T16:04:18.812Z,6.90
2018-05-31T16:06:56.207Z,6.23
2018-05-31T16:09:32.397Z,5.80
2018-05-31T16:12:08.353Z,6.63
2018-05-31T16:14:44.916Z,6.67
2018-05-31T16:17:21.549Z,6.07
2018-05-31T16:19:58.567Z,6.77
2018-05-31T16:22:35.226Z,6.47
2018-05-31T16:25:13.118Z,6.67
2018-05-31T16:27:49.890Z,6.73
2018-05-31T16:30:26.898Z,6.43
2018-05-31T16:33:04.044Z,6.20
2018-05-31T16:35:42.561Z,6.57
2018-05-31T16:38:20.403Z,6.03
2018-05-31T16:40:57.178Z,6.13
2018-05-31T16:43:34.460Z,6.13
2018-05-31T16:46:12.260Z,6.37
2018-05-31T16:48:48.353Z,5.60
2018-05-31T16:51:25.072Z,6.27
2018-05-31T16:54:02.054Z,5.80
2018-05-31T16:56:38.402Z,6.67
2018-05-31T16:59:15.381Z,6.07
2018-05-31T17:01:52.360Z,6.23
2018-05-31T17:04:30.109Z,5.93
2018-05-31T17:07:06.078Z,6.13
2018-05-31T17:09:42.526Z,6.73
2018-05-31T17:12:19.677Z,6.40
2018-05-31T17:14:56.258Z,5.90
2018-05-31T17:17:34.233Z,5.90
2018-05-31T17:20:10.277Z,6.33
2018-05-31T17:22:48.193Z,6.10
2018-05-31T17:25:24.869Z,6.70
2018-05-31T17:28:02.778Z,5.93
2018-05-31T17:30:39.242Z,6.57
2018-05-31T17:33:17.387Z,6.73
2018-05-31T17:35:54.025Z,6.43
2018-05-31T17:38:32.656Z,6.30
2018-05-31T17:41:09.658Z,6.87
2018-05-31T17:43:47.930Z,8.30
2018-05-31T17:46:26.864Z,7.63
2018-05-31T17:49:03.869Z,7.03
2018-05-31T17:51:41.055Z,7.10
2018-05-31T17:54:19.088Z,8.00
2018-05-31T17:56:56.250Z,6.93
2018-05-31T17:59:32.676Z,6.53
2018-05-31T18:02:09.053Z,7.40
2018-05-31T18:04:46.778Z,7.83
2018-05-31T18:07:23.923Z,7.60
2018-05-31T18:10:02.385Z,8.20
2018-05-31T18:12:40.490Z,7.83
2018-05-31T18:15:18.185Z,8.63
2018-05-31T18:17:56.348Z,8.13
2018-05-31T18:20:33.613Z,8.70
2018-05-31T18:23:09.916Z,7.97
2018-05-31T18:25:47.093Z,8.00
2018-05-31T18:28:24.369Z,7.90
2018-05-31T18:31:01.925Z,8.77
2018-05-31T18:33:39.698Z,8.30
2018-05-31T18:36:16.168Z,8.60
2018-05-31T18:38:52.952Z,9.30
2018-05-31T18:41:29.583Z,8.57
2018-05-31T18:44:07.175Z,8.13
2018-05-31T18:46:44.328Z,8.67
2018-05-31T18:49:21.248Z,8.50
2018-05-31T18:51:59.375Z,8.53
2018-05-31T18:54:35.727Z,8.30
2018-05-31T18:57:12.442Z,9.37
2018-05-31T18:59:50.214Z,9.87
2018-05-31T19:02:27.898Z,9.17
2018-05-31T19:05:04.214Z,9.23
2018-05-31T19:07:40.758Z,9.93
2018-05-31T19:10:17.096Z,10.00
2018-05-31T19:12:59.825Z,9.50
2018-05-31T19:15:36.470Z,9.60
2018-05-31T19:18:19.582Z,10.40
2018-05-31T19:20:55.580Z,10.43
2018-05-31T19:23:32.437Z,10.00
2018-05-31T19:26:09.281Z,8.83
2018-05-31T19:28:46.285Z,9.33
2018-05-31T19:31:23.883Z,9.33
2018-05-31T19:34:01.160Z,9.30
2018-05-31T19:36:43.109Z,9.90
2018-05-31T19:39:20.986Z,9.80
2018-05-31T19:41:56.862Z,11.50
2018-05-31T19:44:39.533Z,10.87
2018-05-31T19:47:16.910Z,11.37
2018-05-31T19:49:53.794Z,10.70
2018-05-31T19:52:37.308Z,10.33
2018-05-31T19:55:16.303Z,8.90
2018-05-31T19:57:59.181Z,9.90
2018-05-31T20:00:41.843Z,9.80
2018-05-31T20:03:23.777Z,10.37
2018-05-31T20:06:02.643Z,10.47
2018-05-31T20:08:39.687Z,10.53
2018-05-31T20:11:17.047Z,11.30
2018-05-31T20:13:54.033Z,11.67
2018-05-31T20:16:32.455Z,11.20
2018-05-31T20:19:09.791Z,13.23
2018-05-31T20:21:47.457Z,12.80
2018-05-31T20:24:24.330Z,12.80
2018-05-31T20:27:01.618Z,13.03
2018-05-31T20:29:38.784Z,12.90
2018-05-31T20:32:15.880Z,11.80
2018-05-31T20:34:51.684Z,12.13
2018-05-31T20:37:29.855Z,12.30
2018-05-31T20:40:06.529Z,10.83
2018-05-31T20:42:42.800Z,10.77
2018-05-31T20:45:19.965Z,11.87
2018-05-31T20:47:56.865Z,11.47
2018-05-31T20:50:33.205Z,11.20
2018-05-31T20:53:09.768Z,11.27
2018-05-31T20:55:46.864Z,11.33
2018-05-31T20:58:23.536Z,10.53
2018-05-31T21:00:59.554Z,11.00
2018-05-31T21:03:36.284Z,11.13
2018-05-31T21:06:13.302Z,11.20
2018-05-31T21:08:49.905Z,11.40
2018-05-31T21:11:26.125Z,12.70
2018-05-31T21:14:03.921Z,12.80
2018-05-31T21:16:40.464Z,11.97
2018-05-31T21:19:17.214Z,11.77
2018-05-31T21:21:53.419Z,12.57
2018-05-31T21:24:30.185Z,12.73
2018-05-31T21:27:06.141Z,12.40
2018-05-31T21:29:43.296Z,12.17
2018-05-31T21:32:19.649Z,12.07
2018-05-31T21:34:56.669Z,12.00
2018-05-31T21:37:32.994Z,12.60
2018-05-31T21:40:10.212Z,11.97
2018-05-31T21:42:46.523Z,13.07
2018-05-31T21:45:23.647Z,13.57
2018-05-31T21:48:01.173Z,11.37
2018-05-31T21:50:37.605Z,12.70
2018-05-31T21:53:16.035Z,13.30
2018-05-31T21:55:53.705Z,13.13
2018-05-31T21:58:30.376Z,12.97
2018-05-31T22:01:07.031Z,13.10
2018-05-31T22:03:43.783Z,12.83
2018-05-31T22:06:19.761Z,12.73
2018-05-31T22:08:56.125Z,14.07
2018-05-31T22:11:32.091Z,14.20
2018-05-31T22:14:09.396Z,13.77
2018-05-31T22:16:47.110Z,12.80
2018-05-31T22:19:24.124Z,13.30
2018-05-31T22:22:01.109Z,12.33
2018-05-31T22:24:37.852Z,13.83
2018-05-31T22:27:14.396Z,12.63
2018-05-31T22:29:51.391Z,13.90
2018-05-31T22:32:28.335Z,11.53
2018-05-31T22:35:06.185Z,12.57
2018-05-31T22:37:44.557Z,12.77
2018-05-31T22:40:21.317Z,13.17
2018-05-31T22:42:57.598Z,13.80
2018-05-31T22:45:35.790Z,13.30
2018-05-31T22:48:12.648Z,12.50
2018-05-31T22:50:48.738Z,13.37
2018-05-31T22:53:25.091Z,13.53
2018-05-31T22:56:01.046Z,15.20
2018-05-31T22:58:38.141Z,14.10
2018-05-31T23:01:14.317Z,15.67
2018-05-31T23:03:50.873Z,15.00
2018-05-31T23:06:27.411Z,15.23
2018-05-31T23:09:03.665Z,14.33
2018-05-31T23:11:40.968Z,14.33
2018-05-31T23:14:17.862Z,14.63
2018-05-31T23:16:55.100Z,14.77
2018-05-31T23:19:33.055Z,14.20
2018-05-31T23:22:09.811Z,13.50
2018-05-31T23:24:46.569Z,12.60
2018-05-31T23:27:23.699Z,13.00
2018-05-31T23:30:00.651Z,14.17
2018-05-31T23:32:37.962Z,13.73
2018-05-31T23:35:14.893Z,14.33
2018-05-31T23:37:53.187Z,14.27
2018-05-31T23:40:29.613Z,13.47
2018-05-31T23:43:06.589Z,14.43
2018-05-31T23:45:43.776Z,13.77
2018-05-31T23:48:20.750Z,13.30
2018-05-31T23:50:57.381Z,13.83
2018-05-31T23:53:34.396Z,13.70
2018-05-31T23:56:10.232Z,13.70
2018-05-31T23:58:46.833Z,14.67
